Time;durP1;ratioP1;P1;durP2;ratioP2;P2;SDS_P1;SDS_P2;PMS_P1;PMS_P2;Temp;Humidity;BMP_temperature;BMP_pressure;BME280_temperature;BME280_humidity;BME280_pressure;Samples;Min_cycle;Max_cycle;Signal;HPM_P1;HPM_P2
2022/01/11 00:00:37;;;;;;;74.45;36.23;;;;;;;-2.87;76.46;100630.64;1711924;84;20972;-38
2022/01/11 00:03:06;;;;;;;80.60;36.13;;;;;;;-2.85;76.41;100626.81;1711766;83;21012;-39
2022/01/11 00:05:39;;;;;;;73.55;34.20;;;;;;;-2.87;76.42;100629.75;1711944;83;20972;-38
2022/01/11 00:08:02;;;;;;;73.33;34.85;;;;;;;-2.88;76.40;100640.90;1711621;83;21028;-38
2022/01/11 00:10:34;;;;;;;80.10;36.90;;;;;;;-2.88;76.49;100646.05;1712029;83;20997;-38
2022/01/11 00:13:00;;;;;;;74.95;35.95;;;;;;;-2.86;76.40;100645.23;1711605;82;21024;-38
2022/01/11 00:15:26;;;;;;;;;;;;;;;-2.86;76.34;100649.09;1714429;83;21518;-39
2022/01/11 00:17:54;;;;;;;72.03;34.20;;;;;;;-2.87;76.25;100646.08;1711902;83;20110;-38
2022/01/11 00:20:21;;;;;;;74.53;34.53;;;;;;;-2.88;76.40;100651.20;1760486;81;21004;-38
2022/01/11 00:25:32;;;;;;;71.92;35.52;;;;;;;-2.91;76.29;100644.25;1760682;81;20957;-37
2022/01/11 00:27:59;;;;;;;80.07;37.17;;;;;;;-2.92;76.30;100648.55;1760595;81;20956;-37
2022/01/11 00:30:30;;;;;;;79.10;37.73;;;;;;;-2.92;76.28;100643.40;1760871;81;21608;-38
2022/01/11 00:32:55;;;;;;;86.92;39.63;;;;;;;-2.91;76.26;100647.72;1759860;81;21161;-38
2022/01/11 00:35:27;;;;;;;79.25;37.03;;;;;;;-2.89;76.31;100652.91;1760406;81;21497;-38
2022/01/11 00:37:49;;;;;;;89.95;38.90;;;;;;;-2.91;76.22;100654.55;1759824;81;21510;-38
2022/01/11 00:40:15;;;;;;;77.85;34.73;;;;;;;-2.90;76.33;100656.30;1760787;81;21003;-38
2022/01/11 00:42:41;;;;;;;68.83;33.65;;;;;;;-2.89;76.33;100656.77;1760470;81;20992;-38
2022/01/11 00:45:12;;;;;;;67.30;33.45;;;;;;;-2.84;76.31;100655.14;1760550;81;20983;-38
2022/01/11 00:47:39;;;;;;;67.25;32.83;;;;;;;-2.81;76.18;100659.07;1758922;81;21566;-37
2022/01/11 00:50:07;;;;;;;73.25;34.92;;;;;;;-2.81;76.18;100655.64;1755954;81;20989;-38
2022/01/11 00:52:34;;;;;;;64.45;32.73;;;;;;;-2.84;76.30;100668.44;1755873;81;20996;-38
2022/01/11 00:54:59;;;;;;;69.85;32.60;;;;;;;-2.80;76.17;100658.25;1755703;81;21524;-38
2022/01/11 00:57:26;;;;;;;72.25;33.53;;;;;;;-2.85;76.45;100664.14;1755935;82;21020;-39
2022/01/11 00:59:52;;;;;;;71.60;33.33;;;;;;;-2.86;76.38;100667.54;1755657;81;20988;-38
2022/01/11 01:02:18;;;;;;;67.30;31.75;;;;;;;-2.85;76.41;100666.29;1755754;81;21032;-38
2022/01/11 01:04:44;;;;;;;70.72;32.03;;;;;;;-2.85;76.42;100662.85;1755766;81;20978;-38
2022/01/11 01:07:10;;;;;;;70.15;32.73;;;;;;;-2.84;76.51;100665.44;1755781;82;20953;-38
2022/01/11 01:09:51;;;;;;;69.97;32.40;;;;;;;-2.82;76.44;100659.03;1755666;81;21505;-38
2022/01/11 01:12:07;;;;;;;71.10;32.20;;;;;;;-2.81;76.41;100655.64;1753917;80;20988;-39
2022/01/11 01:14:33;;;;;;;74.10;34.45;;;;;;;-2.78;76.32;100661.72;1755802;82;21497;-38
2022/01/11 01:16:59;;;;;;;69.27;32.60;;;;;;;-2.74;76.11;100654.50;1755673;82;20965;-39
2022/01/11 01:19:27;;;;;;;73.52;34.78;;;;;;;-2.74;76.11;100654.50;1755630;82;20997;-39
2022/01/11 01:21:55;;;;;;;73.85;33.40;;;;;;;-2.75;76.14;100664.37;1755721;81;21004;-39
2022/01/11 01:24:21;;;;;;;63.60;31.33;;;;;;;-2.68;76.24;100667.92;1755921;81;21556;-38
2022/01/11 01:26:47;;;;;;;66.90;32.40;;;;;;;-2.67;76.11;100675.22;1755904;81;20992;-38
2022/01/11 01:29:14;;;;;;;71.95;33.58;;;;;;;-2.66;75.98;100679.11;1755761;82;20996;-38
2022/01/11 01:31:40;;;;;;;67.45;31.75;;;;;;;-2.69;75.81;100680.36;1755828;81;21024;-39
2022/01/11 01:34:06;;;;;;;65.05;32.08;;;;;;;-2.70;75.69;100675.61;1755795;81;20980;-38
2022/01/11 01:36:32;;;;;;;63.65;31.40;;;;;;;-2.75;75.76;100672.48;1755622;81;20984;-38
2022/01/11 01:38:58;;;;;;;72.27;32.98;;;;;;;-2.73;75.90;100676.85;1755899;81;20988;-39
2022/01/11 01:41:24;;;;;;;62.67;31.62;;;;;;;-2.74;75.92;100676.39;1755955;82;21512;-39
2022/01/11 01:43:55;;;;;;;65.60;32.15;;;;;;;-2.74;75.86;100680.25;1755590;82;21016;-39
2022/01/11 01:46:22;;;;;;;67.47;32.35;;;;;;;-2.76;75.90;100675.49;1755583;81;21044;-38
2022/01/11 01:48:48;;;;;;;70.35;32.50;;;;;;;-2.78;75.95;100677.17;1758818;81;21012;-38
2022/01/11 01:51:15;;;;;;;72.27;32.45;;;;;;;-2.77;76.05;100683.17;1760362;81;20988;-38
2022/01/11 01:53:46;;;;;;;73.70;32.03;;;;;;;-2.76;75.84;100682.36;1760766;81;21541;-38
2022/01/11 01:56:13;;;;;;;68.10;32.55;;;;;;;-2.78;76.08;100683.61;1760572;81;20988;-38
2022/01/11 01:58:39;;;;;;;66.87;33.48;;;;;;;-2.76;76.01;100689.66;1760769;81;21000;-39
2022/01/11 02:01:07;;;;;;;66.42;30.82;;;;;;;-2.76;75.95;100693.52;1760549;81;20992;-39
2022/01/11 02:03:41;;;;;;;68.15;31.15;;;;;;;-2.74;75.87;100694.41;1760359;81;20996;-39
2022/01/11 02:06:09;;;;;;;68.25;31.87;;;;;;;-2.73;75.78;100695.27;1758380;81;20969;-38
2022/01/11 02:08:36;;;;;;;65.05;30.17;;;;;;;-2.79;75.72;100694.73;1760488;81;20992;-38
2022/01/11 02:11:02;;;;;;;71.65;33.38;;;;;;;-2.80;75.80;100705.88;1760573;81;20961;-38
2022/01/11 02:13:28;;;;;;;71.87;32.50;;;;;;;-2.80;75.92;100699.45;1760844;81;21466;-38
2022/01/11 02:15:54;;;;;;;77.58;35.60;;;;;;;-2.80;75.74;100699.45;1760654;81;21650;-38
2022/01/11 02:18:24;;;;;;;75.90;33.90;;;;;;;-2.88;75.72;100707.83;1760580;81;21023;-38
2022/01/11 02:20:51;;;;;;;69.50;33.95;;;;;;;-2.94;76.02;100717.58;1760404;81;20988;-37
2022/01/11 02:23:19;;;;;;;69.05;33.28;;;;;;;-2.99;75.82;100711.45;1760629;81;21359;-38
2022/01/11 02:25:45;;;;;;;71.17;33.92;;;;;;;-3.03;76.01;100720.80;1760554;81;20984;-37
2022/01/11 02:28:16;;;;;;;73.15;34.63;;;;;;;-3.06;76.17;100719.86;1760526;81;21027;-38
2022/01/11 02:30:43;;;;;;;70.03;33.50;;;;;;;-3.07;76.31;100711.67;1758153;81;21478;-38
2022/01/11 02:33:20;;;;;;;62.60;32.00;;;;;;;-3.05;76.33;100712.61;1760586;81;21036;-37
2022/01/11 02:35:37;;;;;;;71.22;34.03;;;;;;;-3.12;76.34;100711.16;1758946;81;20969;-37
2022/01/11 02:38:03;;;;;;;70.40;35.45;;;;;;;-3.15;76.59;100716.66;1760471;81;21112;-38
2022/01/11 02:40:29;;;;;;;74.62;34.38;;;;;;;-3.17;76.70;100711.89;1760467;81;21030;-38
2022/01/11 02:42:55;;;;;;;72.00;32.83;;;;;;;-3.12;76.81;100711.16;1760466;81;21036;-38
2022/01/11 02:45:22;;;;;;;73.83;34.63;;;;;;;-3.13;76.70;100705.58;1759979;81;29942;-38
2022/01/11 02:47:49;;;;;;;71.97;33.42;;;;;;;-3.10;76.71;100700.48;1759802;81;21110;-38
2022/01/11 02:50:17;;;;;;;77.10;35.85;;;;;;;-3.08;76.49;100703.09;1755881;82;21502;-38
2022/01/11 02:52:42;;;;;;;75.90;35.28;;;;;;;-3.11;76.67;100704.30;1755796;81;21358;-38
2022/01/11 02:55:12;;;;;;;66.70;34.65;;;;;;;-3.08;76.55;100712.10;1755595;81;20993;-38
2022/01/11 02:57:38;;;;;;;68.70;32.98;;;;;;;-3.06;76.52;100710.86;1755769;82;21016;-38
2022/01/11 03:00:12;;;;;;;69.25;33.73;;;;;;;-3.15;76.45;100717.52;1755700;81;21493;-38
2022/01/11 03:02:38;;;;;;;69.72;32.80;;;;;;;-3.19;76.60;100716.14;1755619;82;20957;-38
2022/01/11 03:05:10;;;;;;;73.02;33.73;;;;;;;-3.16;76.46;100721.36;1755802;81;21501;-39
2022/01/11 03:07:36;;;;;;;65.75;31.90;;;;;;;-3.21;76.58;100712.66;1755699;81;21595;-37
2022/01/11 03:10:20;;;;;;;71.90;34.50;;;;;;;-3.17;76.59;100710.61;1755761;81;20968;-38
2022/01/11 03:12:36;;;;;;;75.50;34.45;;;;;;;-3.20;76.53;100707.56;1754061;81;21308;-38
2022/01/11 03:15:03;;;;;;;73.75;33.95;;;;;;;-3.18;76.54;100719.17;1755875;81;20989;-38
2022/01/11 03:17:28;;;;;;;80.33;36.27;;;;;;;-3.19;76.47;100717.00;1756040;82;20980;-38
2022/01/11 03:19:54;;;;;;;78.12;35.35;;;;;;;-3.19;76.39;100712.28;1755745;81;21027;-39
2022/01/11 03:22:20;;;;;;;69.20;33.70;;;;;;;-3.21;76.42;100716.52;1755688;82;21000;-39
2022/01/11 03:24:47;;;;;;;75.75;34.95;;;;;;;-3.16;76.51;100718.36;1755670;82;21039;-38
2022/01/11 03:27:12;;;;;;;76.25;33.88;;;;;;;-3.18;76.41;100717.47;1755673;81;20992;-38
2022/01/11 03:29:39;;;;;;;68.90;33.85;;;;;;;-3.18;76.47;100721.33;1755912;82;20980;-39
2022/01/11 03:32:07;;;;;;;75.90;33.50;;;;;;;-3.19;76.50;100726.00;1756016;81;20977;-38
2022/01/11 03:34:33;;;;;;;77.03;34.43;;;;;;;-3.17;76.49;100726.91;1755697;82;21028;-38
2022/01/11 03:37:00;;;;;;;72.90;34.40;;;;;;;-3.20;76.56;100723.00;1755737;82;20988;-38
2022/01/11 03:39:27;;;;;;;70.20;32.40;;;;;;;-3.20;76.64;100719.14;1755902;81;21027;-38
2022/01/11 03:41:53;;;;;;;77.20;34.75;;;;;;;-3.19;76.37;100723.43;1755978;81;21511;-38
2022/01/11 03:44:19;;;;;;;78.55;33.30;;;;;;;-3.19;76.31;100726.43;1755878;82;21467;-39
2022/01/11 03:46:45;;;;;;;76.33;33.10;;;;;;;-3.20;76.35;100725.96;1755902;81;20970;-39
2022/01/11 03:49:11;;;;;;;70.05;33.08;;;;;;;-3.21;76.33;100722.53;1758793;81;21009;-38
2022/01/11 03:51:39;;;;;;;68.72;32.23;;;;;;;-3.19;76.40;100727.29;1760640;81;21008;-38
2022/01/11 03:54:12;;;;;;;69.17;31.77;;;;;;;-3.15;76.26;100726.95;1760657;81;20984;-37
2022/01/11 03:56:36;;;;;;;68.37;32.73;;;;;;;-3.17;76.21;100732.05;1760225;81;20980;-37
2022/01/11 03:59:06;;;;;;;70.00;32.10;;;;;;;-3.15;76.12;100736.81;1760628;81;21019;-38
2022/01/11 04:01:34;;;;;;;72.10;32.53;;;;;;;-3.15;76.20;100734.66;1760566;81;20972;-38
2022/01/11 04:03:59;;;;;;;73.80;32.17;;;;;;;-3.14;76.09;100738.99;1760567;81;21026;-38
2022/01/11 04:06:27;;;;;;;62.50;30.57;;;;;;;-3.16;76.09;100737.66;1760689;81;20988;-38
2022/01/11 04:08:54;;;;;;;72.00;32.08;;;;;;;-3.14;75.83;100742.85;1760781;81;20979;-38
2022/01/11 04:11:20;;;;;;;67.82;31.60;;;;;;;-3.32;75.88;100747.14;1761155;81;21020;-38
2022/01/11 04:13:47;;;;;;;70.78;31.93;;;;;;;-3.31;75.95;100743.32;1760872;81;21027;-38
2022/01/11 04:16:14;;;;;;;67.40;32.20;;;;;;;-3.30;75.89;100750.61;1760769;81;20987;-38
2022/01/11 04:18:40;;;;;;;69.50;32.13;;;;;;;-3.33;75.83;100747.95;1760927;81;21567;-38
2022/01/11 04:21:06;;;;;;;65.05;30.70;;;;;;;-3.34;75.88;100753.95;1760595;81;21544;-38
2022/01/11 04:23:33;;;;;;;78.95;33.13;;;;;;;-3.32;75.96;100758.71;1760563;81;21532;-38
2022/01/11 04:25:59;;;;;;;;;;;;;;;-3.36;75.93;100756.91;1763314;81;20952;-38
2022/01/11 04:28:27;;;;;;;67.65;31.80;;;;;;;-3.39;76.11;100763.25;1760710;81;20158;-38
2022/01/11 04:30:59;;;;;;;64.25;30.97;;;;;;;-3.39;76.36;100761.96;1760615;81;21299;-38
2022/01/11 04:33:27;;;;;;;71.00;33.18;;;;;;;-3.44;76.35;100776.41;1760607;81;21019;-38
2022/01/11 04:35:54;;;;;;;73.22;34.35;;;;;;;-3.44;76.18;100772.55;1760760;81;21012;-38
2022/01/11 04:38:23;;;;;;;67.87;32.23;;;;;;;-3.45;76.25;100769.11;1760851;81;21152;-37
2022/01/11 04:40:50;;;;;;;71.60;33.88;;;;;;;-3.46;76.29;100771.21;1760228;81;21021;-39
2022/01/11 04:43:16;;;;;;;67.00;33.50;;;;;;;-3.53;76.31;100781.78;1760680;81;21442;-39
2022/01/11 04:45:41;;;;;;;74.03;34.38;;;;;;;-3.64;76.41;100779.32;1760845;81;20981;-39
2022/01/11 04:48:09;;;;;;;74.65;33.23;;;;;;;-3.67;76.69;100780.55;1760551;81;20988;-38
2022/01/11 04:50:35;;;;;;;74.15;34.50;;;;;;;-3.63;76.60;100777.22;1760840;81;20983;-38
2022/01/11 04:53:02;;;;;;;72.45;33.83;;;;;;;-3.62;76.79;100784.12;1760853;81;20987;-39
2022/01/11 04:55:28;;;;;;;74.07;35.30;;;;;;;-3.78;77.26;100780.27;1760553;81;21030;-38
2022/01/11 04:57:55;;;;;;;74.30;36.08;;;;;;;-4.11;77.82;100786.22;1760807;81;20983;-38
2022/01/11 05:00:23;;;;;;;79.97;36.77;;;;;;;-3.99;77.84;100779.25;1760956;81;20968;-38
2022/01/11 05:02:49;;;;;;;77.05;37.28;;;;;;;-3.95;77.95;100787.49;1760496;81;20979;-39
2022/01/11 05:05:15;;;;;;;83.33;37.55;;;;;;;-3.94;77.93;100799.53;1760651;81;21028;-38
2022/01/11 05:07:46;;;;;;;78.85;36.68;;;;;;;-4.02;78.00;100796.28;1760671;81;20988;-38
2022/01/11 05:10:12;;;;;;;75.37;36.63;;;;;;;-3.97;78.06;100798.57;1760557;81;21031;-39
2022/01/11 05:12:39;;;;;;;88.15;37.90;;;;;;;-3.93;78.32;100806.81;1760829;81;20957;-37
2022/01/11 05:15:11;;;;;;;78.47;35.60;;;;;;;-3.91;77.93;100803.48;1760718;81;21016;-37
2022/01/11 05:17:37;;;;;;;83.20;38.45;;;;;;;-3.96;77.72;100799.05;1760706;81;20965;-37
2022/01/11 05:20:06;;;;;;;83.40;38.17;;;;;;;-3.96;77.95;100802.47;1760793;81;20992;-37
2022/01/11 05:22:33;;;;;;;76.77;35.23;;;;;;;-3.89;77.99;100803.10;1760560;81;20964;-37
2022/01/11 05:24:59;;;;;;;82.90;38.95;;;;;;;-3.86;77.97;100804.88;1760754;81;21497;-37
2022/01/11 05:27:27;;;;;;;83.27;36.60;;;;;;;-3.79;77.64;100805.92;1760769;81;20960;-37
2022/01/11 05:29:53;;;;;;;79.92;35.78;;;;;;;-3.76;77.37;100804.30;1760530;81;21315;-37
2022/01/11 05:32:19;;;;;;;76.17;35.48;;;;;;;-3.77;77.28;100815.83;1760564;81;21728;-37
2022/01/11 05:34:44;;;;;;;76.70;34.70;;;;;;;-3.70;77.09;100812.59;1760764;81;21600;-37
2022/01/11 05:37:10;;;;;;;76.10;34.88;;;;;;;-3.73;76.96;100818.93;1760618;81;20968;-37
2022/01/11 05:39:36;;;;;;;75.05;36.23;;;;;;;-3.69;76.98;100811.78;1760554;81;21011;-38
2022/01/11 05:42:06;;;;;;;78.12;35.65;;;;;;;-3.70;76.89;100813.88;1760515;81;21000;-37
2022/01/11 05:44:34;;;;;;;73.97;36.17;;;;;;;-3.67;76.79;100819.98;1760560;81;20957;-37
2022/01/11 05:47:01;;;;;;;80.90;36.85;;;;;;;-3.67;76.63;100826.41;1760634;81;20956;-37
2022/01/11 05:49:26;;;;;;;74.27;35.92;;;;;;;-3.66;76.56;100823.41;1758363;81;21538;-37
2022/01/11 05:51:52;;;;;;;74.97;35.88;;;;;;;-3.73;76.62;100824.97;1755927;81;20953;-38
2022/01/11 05:54:18;;;;;;;73.07;34.67;;;;;;;-3.67;76.67;100834.12;1755768;81;20977;-42
2022/01/11 05:56:44;;;;;;;77.65;36.00;;;;;;;-3.65;76.53;100828.16;1755733;81;20996;-37
2022/01/11 05:59:10;;;;;;;88.60;39.78;;;;;;;-3.74;76.40;100837.34;1755745;81;21517;-38
2022/01/11 06:01:36;;;;;;;103.80;50.50;;;;;;;-3.76;76.73;100839.02;1755827;82;21446;-38
2022/01/11 06:04:02;;;;;;;100.78;50.03;;;;;;;-3.75;76.70;100841.16;1755733;82;21442;-38
2022/01/11 06:06:28;;;;;;;88.52;40.40;;;;;;;-3.76;76.49;100844.58;1755770;81;20985;-37
2022/01/11 06:08:54;;;;;;;79.87;38.00;;;;;;;-3.77;76.52;100838.54;1755709;81;21537;-38
2022/01/11 06:11:20;;;;;;;86.15;39.03;;;;;;;-3.82;76.43;100839.24;1755814;81;21415;-38
2022/01/11 06:13:47;;;;;;;84.75;37.13;;;;;;;-3.88;76.74;100838.23;1755770;82;21020;-37
2022/01/11 06:16:13;;;;;;;;;;;;;;;-3.76;76.75;100842.00;1758493;81;21407;-37
2022/01/11 06:18:39;;;;;;;82.55;39.45;;;;;;;-3.78;76.68;100842.34;1755706;82;20106;-37
2022/01/11 06:21:05;;;;;;;77.53;36.75;;;;;;;-3.75;76.75;100847.16;1755771;81;20953;-38
2022/01/11 06:23:30;;;;;;;78.67;36.80;;;;;;;-3.75;76.65;100854.88;1755849;82;21035;-38
2022/01/11 06:25:56;;;;;;;78.35;37.95;;;;;;;-3.75;76.58;100860.02;1755838;81;21526;-38
2022/01/11 06:28:22;;;;;;;83.92;39.27;;;;;;;-3.78;76.87;100855.20;1755745;81;21020;-39
2022/01/11 06:30:48;;;;;;;107.20;49.67;;;;;;;-3.76;76.57;100854.86;1755802;81;20984;-38
2022/01/11 06:33:14;;;;;;;97.40;44.60;;;;;;;-3.74;76.03;100855.77;1755717;81;20974;-38
2022/01/11 06:35:40;;;;;;;89.17;41.37;;;;;;;-3.74;76.03;100855.77;1755859;81;20984;-38
2022/01/11 06:38:06;;;;;;;83.80;39.55;;;;;;;-3.70;76.07;100870.44;1755901;81;20993;-37
2022/01/11 06:40:32;;;;;;;84.25;39.70;;;;;;;-3.70;75.96;100870.44;1755685;82;21040;-38
2022/01/11 06:42:58;;;;;;;88.45;39.73;;;;;;;-3.73;76.05;100869.06;1755807;81;20949;-38
2022/01/11 06:45:24;;;;;;;84.65;38.00;;;;;;;-3.68;76.40;100872.63;1755677;82;21474;-38
2022/01/11 06:47:51;;;;;;;83.40;36.05;;;;;;;-3.66;76.32;100876.12;1755821;81;21012;-38
2022/01/11 06:50:17;;;;;;;93.62;42.60;;;;;;;-3.67;76.37;100880.39;1759426;81;21083;-38
2022/01/11 06:52:43;;;;;;;85.05;39.15;;;;;;;-3.64;76.40;100884.74;1760722;81;20996;-38
2022/01/11 06:55:10;;;;;;;86.37;38.25;;;;;;;-3.66;76.34;100887.69;1760572;81;21000;-39
2022/01/11 06:57:38;;;;;;;78.55;36.68;;;;;;;-3.65;76.47;100886.02;1760583;81;21003;-39
2022/01/11 07:00:08;;;;;;;;;;;;;;;-3.62;76.58;100893.39;1763288;81;20988;-38
2022/01/11 07:02:34;;;;;;;79.05;37.75;;;;;;;-3.64;76.35;100897.59;1760520;81;20398;-38
2022/01/11 07:05:01;;;;;;;81.28;37.48;;;;;;;-3.61;76.39;100891.27;1760457;81;20993;-38
2022/01/11 07:07:27;;;;;;;87.10;36.47;;;;;;;-3.61;76.50;100901.97;1760794;81;21472;-38
2022/01/11 07:09:52;;;;;;;82.20;37.25;;;;;;;-3.58;76.45;100895.22;1760606;81;20968;-39
2022/01/11 07:12:18;;;;;;;80.95;38.50;;;;;;;-3.58;76.45;100895.22;1760598;81;20980;-38
2022/01/11 07:14:44;;;;;;;84.87;39.48;;;;;;;-3.59;76.44;100902.46;1760746;81;21466;-39
2022/01/11 07:17:10;;;;;;;92.35;40.90;;;;;;;-3.57;76.52;100902.51;1760852;81;20957;-39
2022/01/11 07:19:37;;;;;;;82.42;38.53;;;;;;;-3.55;76.69;100902.99;1760752;81;20988;-39
2022/01/11 07:22:04;;;;;;;85.72;40.25;;;;;;;-3.57;76.59;100899.94;1760873;81;20990;-38
2022/01/11 07:24:29;;;;;;;87.53;41.23;;;;;;;-3.52;76.74;100905.66;1760717;81;20981;-38
2022/01/11 07:26:55;;;;;;;92.97;42.98;;;;;;;-3.50;76.59;100907.86;1760818;81;21517;-38
2022/01/11 07:29:21;;;;;;;88.45;42.40;;;;;;;-3.49;76.61;100912.19;1760803;81;21003;-38
2022/01/11 07:31:47;;;;;;;97.65;45.45;;;;;;;-3.45;76.52;100911.86;1760649;81;21027;-38
2022/01/11 07:34:13;;;;;;;79.65;40.20;;;;;;;-3.44;76.37;100912.72;1760703;81;20988;-38
2022/01/11 07:36:40;;;;;;;81.95;40.92;;;;;;;-3.43;76.64;100916.62;1760867;81;20979;-38
2022/01/11 07:39:06;;;;;;;89.40;43.30;;;;;;;-3.41;76.56;100921.39;1760751;81;20965;-38
2022/01/11 07:41:32;;;;;;;92.40;45.43;;;;;;;-3.38;76.53;100920.63;1760842;81;20973;-38
2022/01/11 07:43:58;;;;;;;98.37;48.28;;;;;;;-3.42;76.34;100912.34;1760838;81;20953;-38
2022/01/11 07:46:24;;;;;;;139.18;57.45;;;;;;;-3.41;76.03;100908.53;1760723;81;21640;-38
2022/01/11 07:48:51;;;;;;;128.47;59.15;;;;;;;-3.48;75.97;100911.34;1760590;81;21485;-37
2022/01/11 07:51:16;;;;;;;120.62;56.65;;;;;;;-3.51;76.06;100909.98;1760894;81;20983;-37
2022/01/11 07:53:43;;;;;;;118.85;56.75;;;;;;;-3.45;75.95;100913.56;1760487;81;20992;-38
2022/01/11 07:56:09;;;;;;;130.63;60.00;;;;;;;-3.47;76.17;100910.52;1760991;81;21007;-38
2022/01/11 07:58:36;;;;;;;139.18;64.35;;;;;;;-3.47;76.13;100907.09;1760598;81;21510;-38
2022/01/11 08:01:02;;;;;;;116.10;58.52;;;;;;;-3.48;76.16;100902.77;1760837;81;20988;-38
2022/01/11 08:03:28;;;;;;;113.50;56.65;;;;;;;-3.41;76.10;100914.09;1760976;81;20984;-38
2022/01/11 08:05:54;;;;;;;124.25;62.70;;;;;;;-3.38;75.96;100916.77;1760762;81;21554;-37
2022/01/11 08:08:20;;;;;;;126.55;61.92;;;;;;;-3.37;76.33;100913.34;1760570;81;21557;-38
2022/01/11 08:10:46;;;;;;;132.27;63.28;;;;;;;-3.33;76.05;100921.59;1760771;81;20992;-39
2022/01/11 08:13:11;;;;;;;120.65;60.88;;;;;;;-3.42;76.06;100918.77;1712133;84;21509;-39
2022/01/11 08:15:37;;;;;;;116.20;53.05;;;;;;;-3.35;76.30;100915.55;1711987;83;21454;-39
2022/01/11 08:18:05;;;;;;;102.07;50.58;;;;;;;-3.31;76.22;100917.36;1711984;83;21536;-38
2022/01/11 08:20:31;;;;;;;109.25;51.58;;;;;;;-3.30;76.34;100913.97;1712196;83;21012;-38
2022/01/11 08:22:57;;;;;;;102.70;51.02;;;;;;;-3.26;76.36;100914.50;1711910;83;20993;-38
2022/01/11 08:25:24;;;;;;;106.22;50.12;;;;;;;-3.19;76.20;100910.41;1712017;83;21004;-39
2022/01/11 08:27:50;;;;;;;116.80;54.25;;;;;;;-3.18;76.22;100919.45;1712282;83;20996;-38
2022/01/11 08:30:16;;;;;;;132.55;58.60;;;;;;;-3.12;76.48;100920.03;1711960;83;20994;-39
2022/01/11 08:32:42;;;;;;;126.35;56.08;;;;;;;-3.06;76.63;100919.31;1712096;83;21419;-39
2022/01/11 08:35:09;;;;;;;125.90;58.33;;;;;;;-2.99;76.41;100920.80;1712098;84;20999;-38
2022/01/11 08:37:36;;;;;;;174.27;70.12;;;;;;;-2.94;76.42;100925.65;1741765;82;21489;-37
2022/01/11 08:40:04;;;;;;;145.60;61.40;;;;;;;-2.88;76.31;100926.22;1784285;80;20957;-38
2022/01/11 08:42:30;;;;;;;124.65;56.60;;;;;;;-2.90;76.30;100935.19;1784043;80;21614;-37
2022/01/11 08:44:57;;;;;;;102.05;47.83;;;;;;;-2.82;76.58;100935.41;1760358;80;21480;-38
2022/01/11 08:47:25;;;;;;;;;;;;;;;-2.81;76.37;100937.12;1759131;80;20989;-38
2022/01/11 08:49:52;;;;;;;87.88;43.10;;;;;;;-2.77;76.24;100934.22;1772784;80;20101;-38
2022/01/11 08:52:17;;;;;;;88.97;45.00;;;;;;;-2.73;76.44;100938.21;1779057;80;21474;-38
2022/01/11 08:54:43;;;;;;;99.75;47.58;;;;;;;-2.71;76.31;100941.70;1779216;80;21012;-38
2022/01/11 08:57:10;;;;;;;94.80;44.60;;;;;;;-2.62;76.40;100941.06;1779286;80;21021;-39
2022/01/11 08:59:36;;;;;;;103.80;47.13;;;;;;;-2.57;76.43;100944.59;1779498;80;20954;-38
2022/01/11 09:02:04;;;;;;;100.10;50.17;;;;;;;-2.39;76.57;100944.17;1772299;80;20956;-38
2022/01/11 09:04:30;;;;;;;109.12;51.08;;;;;;;-2.06;76.07;100948.37;1743027;81;21004;-39
2022/01/11 09:06:58;;;;;;;99.32;48.98;;;;;;;-1.75;75.29;100949.05;1742992;82;21438;-38
2022/01/11 09:09:28;;;;;;;98.15;48.60;;;;;;;-1.45;74.51;100944.95;1743033;82;20984;-38
2022/01/11 09:11:54;;;;;;;100.72;48.55;;;;;;;-1.18;73.82;100947.20;1742681;82;21481;-39
2022/01/11 09:14:21;;;;;;;95.83;46.75;;;;;;;-0.98;72.91;100946.29;1742978;82;20975;-38
2022/01/11 09:16:46;;;;;;;98.37;48.70;;;;;;;-0.91;72.72;100945.09;1741407;80;20947;-38
2022/01/11 09:19:14;;;;;;;92.90;45.90;;;;;;;-0.93;72.61;100952.81;1741768;80;20990;-38
2022/01/11 09:21:40;;;;;;;;;;;;;;;-0.90;72.75;100951.58;1726816;82;20960;-38
2022/01/11 09:24:08;;;;;;;100.15;49.18;;;;;;;-0.96;72.75;100952.78;1724408;82;20104;-38
2022/01/11 09:26:34;;;;;;;98.45;49.42;;;;;;;-1.02;73.19;100960.39;1724309;83;20968;-38
2022/01/11 09:28:59;;;;;;;96.78;49.23;;;;;;;-1.04;73.09;100959.50;1724159;83;20975;-38
2022/01/11 09:31:25;;;;;;;94.65;48.35;;;;;;;-1.10;73.31;100958.10;1724348;82;21508;-38
2022/01/11 09:33:52;;;;;;;94.03;45.43;;;;;;;-1.03;73.61;100966.41;1774228;80;21489;-38
2022/01/11 09:36:18;;;;;;;83.07;41.83;;;;;;;-1.10;73.64;100965.84;1743353;80;21007;-38
2022/01/11 09:38:44;;;;;;;102.82;49.05;;;;;;;-1.10;73.90;100965.84;1742962;81;21022;-38
2022/01/11 09:41:10;;;;;;;99.58;48.98;;;;;;;-1.16;74.00;100963.59;1742978;81;20987;-38
2022/01/11 09:43:36;;;;;;;91.97;46.48;;;;;;;-1.12;74.14;100963.23;1742879;82;20959;-38
2022/01/11 09:46:03;;;;;;;97.70;46.13;;;;;;;-1.29;74.54;100958.14;1742974;82;21803;-39
2022/01/11 09:48:35;;;;;;;93.47;48.08;;;;;;;-1.33;74.76;100953.77;1743015;82;21014;-38
2022/01/11 09:51:02;;;;;;;86.00;43.70;;;;;;;-1.27;75.14;100956.06;1742959;81;21034;-37
2022/01/11 09:53:28;;;;;;;96.50;45.17;;;;;;;-1.29;74.97;100951.30;1743068;81;21440;-37
2022/01/11 09:55:54;;;;;;;103.38;48.65;;;;;;;-1.31;75.29;100947.82;1743078;81;21526;-38
2022/01/11 09:58:20;;;;;;;90.00;42.38;;;;;;;-1.26;75.64;100951.33;1743061;81;20962;-38
2022/01/11 10:00:46;;;;;;;77.55;39.42;;;;;;;-1.14;75.38;100956.31;1742976;82;20987;-38
2022/01/11 10:03:14;;;;;;;73.15;39.00;;;;;;;-1.13;75.04;100959.33;1743269;81;21029;-38
2022/01/11 10:05:40;;;;;;;76.65;39.67;;;;;;;-1.14;75.30;100957.60;1743001;81;21436;-40
2022/01/11 10:08:27;;;;;;;82.80;40.28;;;;;;;-1.12;75.35;100955.91;1742929;81;20991;-38
2022/01/11 10:10:57;;;;;;;75.25;38.45;;;;;;;-1.14;75.46;100961.47;1743121;82;20996;-39
2022/01/11 10:13:39;;;;;;;83.95;40.48;;;;;;;-1.06;75.38;100959.89;1743044;81;20992;-38
2022/01/11 10:16:28;;;;;;;82.70;39.08;;;;;;;-1.07;75.84;100960.75;1743110;81;20988;-39
2022/01/11 10:18:58;;;;;;;86.65;39.58;;;;;;;-0.91;75.49;100959.30;1728538;82;20954;-39
2022/01/11 10:21:43;;;;;;;69.12;37.30;;;;;;;-0.86;75.34;100963.70;1742480;81;20960;-39
2022/01/11 10:24:39;;;;;;;74.80;37.13;;;;;;;-0.81;75.25;100959.92;1739142;81;20996;-39
2022/01/11 10:27:21;;;;;;;86.60;39.40;;;;;;;-0.77;74.95;100963.00;1744881;80;21445;-39
2022/01/11 10:29:51;;;;;;;71.57;38.05;;;;;;;-0.71;75.24;100967.41;1755305;82;20956;-40
2022/01/11 10:32:30;;;;;;;77.42;39.73;;;;;;;-0.57;75.12;100974.12;1755293;82;20987;-39
2022/01/11 10:35:04;;;;;;;72.22;38.02;;;;;;;-0.53;74.87;100974.17;1754953;80;21480;-42
2022/01/11 10:37:41;;;;;;;73.67;36.20;;;;;;;-0.47;74.81;100973.44;1753511;81;20971;-40
2022/01/11 10:40:24;;;;;;;81.75;39.48;;;;;;;-0.35;74.65;100975.34;1777676;80;21017;-39
2022/01/11 10:42:56;;;;;;;81.20;40.15;;;;;;;-0.39;74.55;100979.16;1778975;80;21027;-40
2022/01/11 10:45:26;;;;;;;77.05;38.90;;;;;;;-0.30;74.78;100984.05;1779266;80;20997;-41
2022/01/11 10:47:55;;;;;;;82.62;39.98;;;;;;;-0.24;74.39;100982.84;1766781;80;20973;-38
2022/01/11 10:50:30;;;;;;;92.82;43.42;;;;;;;-0.17;74.40;100984.68;1748373;81;21012;-40
2022/01/11 10:53:23;;;;;;;92.72;46.08;;;;;;;-0.18;74.19;100984.25;1759738;81;21028;-39
2022/01/11 10:55:53;;;;;;;92.47;45.78;;;;;;;-0.13;74.14;100991.62;1760270;81;21532;-39
2022/01/11 10:58:19;;;;;;;94.07;46.50;;;;;;;-0.11;73.89;100990.37;1760162;81;21022;-39
2022/01/11 11:00:50;;;;;;;97.53;47.60;;;;;;;-0.08;73.80;101002.06;1760321;81;20964;-39
2022/01/11 11:03:20;;;;;;;91.15;46.68;;;;;;;-0.14;73.39;100996.37;1759261;81;21450;-39
2022/01/11 11:06:05;;;;;;;92.33;45.98;;;;;;;-0.14;73.37;100995.08;1760310;81;21481;-39
2022/01/11 11:08:36;;;;;;;87.92;44.38;;;;;;;-0.23;73.26;100998.38;1759776;81;20964;-39
2022/01/11 11:11:04;;;;;;;88.17;44.03;;;;;;;-0.24;73.12;100995.77;1760097;81;21060;-39
2022/01/11 11:13:35;;;;;;;85.42;42.58;;;;;;;-0.26;73.07;100997.46;1760349;81;20965;-40